createdAt,value
2018-03-28T04:00:32.083Z,7.45
2018-03-28T04:00:57.593Z,7.39
2018-03-28T04:01:23.082Z,7.47
2018-03-28T04:01:48.561Z,7.56
2018-03-28T04:02:14.051Z,7.39
2018-03-28T04:02:39.610Z,7.53
2018-03-28T04:03:05.083Z,7.53
2018-03-28T04:03:30.575Z,7.42
2018-03-28T04:03:56.100Z,7.48
2018-03-28T04:05:05.137Z,7.53
2018-03-28T04:05:30.617Z,7.51
2018-03-28T04:05:56.104Z,7.58
2018-03-28T04:06:21.581Z,7.45
2018-03-28T04:06:47.073Z,7.51
2018-03-28T04:07:12.573Z,7.53
2018-03-28T04:07:38.038Z,7.47
2018-03-28T04:08:03.523Z,7.4
2018-03-28T04:08:29.029Z,7.43
2018-03-28T04:09:22.508Z,7.45
2018-03-28T04:09:47.970Z,7.54
2018-03-28T04:10:13.432Z,7.5
2018-03-28T04:10:38.920Z,7.51
2018-03-28T04:11:32.335Z,7.47
2018-03-28T04:11:57.831Z,7.53
2018-03-28T04:12:23.326Z,7.48
2018-03-28T04:12:48.824Z,7.43
2018-03-28T04:13:14.326Z,7.48
2018-03-28T04:14:02.618Z,7.45
2018-03-28T04:14:28.109Z,7.48
2018-03-28T04:14:53.590Z,7.53
2018-03-28T04:15:19.092Z,7.48
2018-03-28T04:15:44.569Z,7.48
2018-03-28T04:16:10.100Z,7.45
2018-03-28T04:16:35.563Z,7.51
2018-03-28T04:17:01.099Z,7.5
2018-03-28T04:17:26.559Z,7.5
2018-03-28T04:17:52.057Z,7.48
2018-03-28T04:18:17.569Z,7.47
2018-03-28T04:18:43.049Z,7.5
2018-03-28T04:19:08.539Z,7.54
2018-03-28T04:19:34.020Z,7.56
2018-03-28T04:19:59.531Z,7.57
2018-03-28T04:20:25.017Z,7.47
2018-03-28T04:20:50.489Z,7.53
2018-03-28T04:21:16.006Z,7.5
2018-03-28T04:21:41.510Z,7.56
2018-03-28T04:22:06.974Z,7.51
2018-03-28T04:22:32.461Z,7.51
2018-03-28T04:22:57.966Z,7.47
2018-03-28T04:23:23.460Z,7.57
2018-03-28T04:23:48.937Z,7.57
2018-03-28T04:24:14.463Z,7.6
2018-03-28T04:24:39.953Z,7.56
2018-03-28T04:25:05.415Z,7.56
2018-03-28T04:25:30.927Z,7.51
2018-03-28T04:25:56.420Z,7.53
2018-03-28T04:26:21.889Z,7.58
2018-03-28T04:26:47.335Z,7.53
2018-03-28T04:27:12.841Z,7.57
2018-03-28T04:27:38.306Z,7.54
2018-03-28T04:28:03.766Z,7.54
2018-03-28T04:28:29.268Z,7.5
2018-03-28T04:28:54.765Z,7.54
2018-03-28T04:29:20.251Z,7.54
2018-03-28T04:29:45.736Z,7.53
2018-03-28T04:30:11.228Z,7.53
2018-03-28T04:30:36.747Z,7.53
2018-03-28T04:31:02.240Z,7.57
2018-03-28T04:31:27.704Z,7.56
2018-03-28T04:31:53.232Z,7.56
2018-03-28T04:32:18.761Z,7.6
2018-03-28T04:32:44.263Z,7.51
2018-03-28T04:33:09.759Z,7.5
2018-03-28T04:33:35.243Z,7.5
2018-03-28T04:34:00.761Z,7.51
2018-03-28T04:34:26.254Z,7.54
2018-03-28T04:34:51.732Z,7.57
2018-03-28T04:35:17.224Z,7.5
2018-03-28T04:35:42.685Z,7.47
2018-03-28T04:36:31.017Z,7.5
2018-03-28T04:36:56.509Z,7.45
2018-03-28T04:37:21.974Z,7.53
2018-03-28T04:37:47.500Z,7.45
2018-03-28T04:38:12.985Z,7.48
2018-03-28T04:38:38.467Z,7.47
2018-03-28T04:39:04.010Z,7.47
2018-03-28T04:39:29.480Z,7.47
2018-03-28T04:39:55.004Z,7.47
2018-03-28T04:40:20.496Z,7.48
2018-03-28T04:40:46.021Z,7.43
2018-03-28T04:41:11.464Z,7.47
2018-03-28T04:41:36.969Z,7.47
2018-03-28T04:42:02.464Z,7.47
2018-03-28T04:42:27.962Z,7.45
2018-03-28T04:42:53.451Z,7.47
2018-03-28T04:43:18.944Z,7.43
2018-03-28T04:43:44.478Z,7.48
2018-03-28T04:44:09.947Z,7.42
2018-03-28T04:44:35.444Z,7.42
2018-03-28T04:45:01.020Z,7.47
2018-03-28T04:45:26.508Z,7.47
2018-03-28T04:45:51.972Z,7.51
2018-03-28T04:46:17.486Z,7.42
2018-03-28T04:46:42.978Z,7.47
2018-03-28T04:47:08.462Z,7.51
2018-03-28T04:47:33.989Z,7.5
2018-03-28T04:47:59.450Z,7.53
2018-03-28T04:48:24.950Z,7.53
2018-03-28T04:48:50.420Z,7.54
2018-03-28T04:49:15.943Z,7.45
2018-03-28T04:49:41.416Z,7.53
2018-03-28T04:50:06.891Z,7.5
2018-03-28T04:50:32.408Z,7.5
2018-03-28T04:50:57.904Z,7.54
2018-03-28T04:51:23.398Z,7.51
2018-03-28T04:51:48.904Z,7.5
2018-03-28T04:52:14.405Z,7.53
2018-03-28T04:52:39.879Z,7.42
2018-03-28T04:53:05.360Z,7.47
2018-03-28T04:53:30.920Z,7.43
2018-03-28T04:54:29.433Z,7.42
2018-03-28T04:54:54.935Z,7.4
2018-03-28T04:55:20.428Z,7.4
2018-03-28T04:55:45.932Z,7.47
2018-03-28T04:56:11.374Z,7.5
2018-03-28T04:56:36.879Z,7.5
2018-03-28T04:57:02.374Z,7.47
2018-03-28T04:57:27.866Z,7.4
2018-03-28T04:57:53.368Z,7.48
2018-03-28T04:58:18.921Z,7.43
2018-03-28T04:58:44.412Z,7.47
2018-03-28T04:59:09.937Z,7.47
2018-03-28T04:59:35.424Z,7.47
2018-03-28T05:00:00.902Z,7.51
2018-03-28T05:01:04.524Z,7.5
2018-03-28T05:01:30.022Z,7.53
2018-03-28T05:01:55.506Z,7.54
2018-03-28T05:02:21.011Z,7.48
2018-03-28T05:02:46.526Z,7.48
2018-03-28T05:03:12.007Z,7.47
2018-03-28T05:03:37.515Z,7.48
2018-03-28T05:04:03.076Z,7.51
2018-03-28T05:04:28.507Z,7.43
2018-03-28T05:04:54.022Z,7.47
2018-03-28T05:05:19.583Z,7.45
2018-03-28T05:05:45.076Z,7.53
2018-03-28T05:06:10.851Z,7.48
2018-03-28T05:06:36.367Z,7.47
2018-03-28T05:07:02.157Z,7.48
2018-03-28T05:07:27.537Z,7.47
2018-03-28T05:07:53.004Z,7.51
2018-03-28T05:08:18.478Z,7.57
2018-03-28T05:08:43.968Z,7.57
2018-03-28T05:09:09.438Z,7.48
2018-03-28T05:10:17.701Z,7.48
2018-03-28T05:10:43.183Z,7.45
2018-03-28T05:11:08.669Z,7.54
2018-03-28T05:11:34.169Z,7.48
2018-03-28T05:11:59.683Z,7.5
2018-03-28T05:12:25.164Z,7.53
2018-03-28T05:12:50.661Z,7.57
2018-03-28T05:13:16.157Z,7.51
2018-03-28T05:13:41.648Z,7.53
2018-03-28T05:14:07.131Z,7.5
2018-03-28T05:14:32.653Z,7.5
2018-03-28T05:14:58.210Z,7.48
2018-03-28T05:15:23.753Z,7.45
2018-03-28T05:15:49.390Z,7.53
2018-03-28T05:16:14.853Z,7.5
2018-03-28T05:16:40.319Z,7.51
2018-03-28T05:17:05.818Z,7.56
2018-03-28T05:17:31.337Z,7.48
2018-03-28T05:18:34.948Z,7.6
2018-03-28T05:19:00.467Z,7.48
2018-03-28T05:19:25.984Z,7.56
2018-03-28T05:19:51.489Z,7.56
2018-03-28T05:20:16.956Z,7.51
2018-03-28T05:20:42.450Z,7.54
2018-03-28T05:21:08.033Z,7.47
2018-03-28T05:21:33.550Z,7.57
2018-03-28T05:21:59.028Z,7.54
2018-03-28T05:22:24.532Z,7.58
2018-03-28T05:22:50.014Z,7.58
2018-03-28T05:23:15.534Z,7.56
2018-03-28T05:23:41.013Z,7.53
2018-03-28T05:24:06.550Z,7.54
2018-03-28T05:24:32.069Z,7.56
2018-03-28T05:24:57.620Z,7.54
2018-03-28T05:25:23.139Z,7.58
2018-03-28T05:26:21.715Z,7.56
2018-03-28T05:26:47.211Z,7.56
2018-03-28T05:27:12.695Z,7.58
2018-03-28T05:27:38.159Z,7.57
2018-03-28T05:28:03.655Z,7.57
2018-03-28T05:28:29.118Z,7.58
2018-03-28T05:28:54.621Z,7.56
2018-03-28T05:29:20.081Z,7.54
2018-03-28T05:29:45.587Z,7.51
2018-03-28T05:30:11.132Z,7.6
2018-03-28T05:30:36.598Z,7.56
2018-03-28T05:31:02.120Z,7.53
2018-03-28T05:31:27.562Z,7.51
2018-03-28T05:31:53.086Z,7.69
2018-03-28T05:32:18.577Z,7.58
2018-03-28T05:32:44.063Z,7.57
2018-03-28T05:33:09.545Z,7.56
2018-03-28T05:33:35.043Z,7.53
2018-03-28T05:34:00.486Z,7.57
2018-03-28T05:34:25.947Z,7.57
2018-03-28T05:34:51.450Z,7.6
2018-03-28T05:35:16.936Z,7.5
2018-03-28T05:35:42.440Z,7.56
2018-03-28T05:36:07.927Z,7.51
2018-03-28T05:36:33.390Z,7.54
2018-03-28T05:36:58.916Z,7.53
2018-03-28T05:37:24.390Z,7.57
2018-03-28T05:37:49.888Z,7.58
2018-03-28T05:38:15.368Z,7.61
2018-03-28T05:38:40.849Z,7.56
2018-03-28T05:39:06.364Z,7.57
2018-03-28T05:39:31.926Z,7.58
2018-03-28T05:39:57.503Z,7.61
2018-03-28T05:40:23.024Z,7.61
2018-03-28T05:40:48.554Z,7.61
2018-03-28T05:41:14.065Z,7.63
2018-03-28T05:41:39.628Z,7.54
2018-03-28T05:42:05.146Z,7.6
2018-03-28T05:42:30.696Z,7.66
2018-03-28T05:42:56.209Z,7.56
2018-03-28T05:43:21.703Z,7.66
2018-03-28T05:43:47.183Z,7.6
2018-03-28T05:44:12.660Z,7.57
2018-03-28T05:44:38.169Z,7.63
2018-03-28T05:45:03.709Z,7.66
2018-03-28T05:45:29.179Z,7.63
2018-03-28T05:45:54.693Z,7.67
2018-03-28T05:46:20.174Z,7.6
2018-03-28T05:46:45.671Z,7.6
2018-03-28T05:47:11.183Z,7.58
2018-03-28T05:47:36.667Z,7.61
2018-03-28T05:48:02.179Z,7.6
2018-03-28T05:48:27.650Z,7.61
2018-03-28T05:48:53.149Z,7.6
2018-03-28T05:49:18.638Z,7.61
2018-03-28T05:49:44.126Z,7.63
2018-03-28T05:50:09.626Z,7.63
2018-03-28T05:50:35.081Z,7.6
2018-03-28T05:51:00.564Z,7.61
2018-03-28T05:51:26.036Z,7.61
2018-03-28T05:51:51.516Z,7.66
2018-03-28T05:52:17.010Z,7.57
2018-03-28T05:52:42.544Z,7.67
2018-03-28T05:53:08.039Z,7.7
2018-03-28T05:53:33.529Z,7.66
2018-03-28T05:53:59.044Z,7.57
2018-03-28T05:54:24.541Z,7.61
2018-03-28T05:54:50.024Z,7.57
2018-03-28T05:55:15.510Z,7.67
2018-03-28T05:55:41.018Z,7.58
2018-03-28T05:56:06.532Z,7.61
2018-03-28T05:56:32.036Z,7.61
2018-03-28T05:56:57.528Z,7.66
2018-03-28T05:57:22.995Z,7.6
2018-03-28T05:57:48.496Z,7.58
2018-03-28T05:58:13.965Z,7.66
2018-03-28T05:58:39.472Z,7.63
2018-03-28T05:59:04.929Z,7.63
2018-03-28T05:59:30.429Z,7.6
2018-03-28T05:59:55.957Z,7.57
2018-03-28T06:00:21.471Z,7.6
2018-03-28T06:00:46.992Z,7.63
2018-03-28T06:01:12.473Z,7.57
2018-03-28T06:01:37.976Z,7.75
2018-03-28T06:02:03.493Z,7.73
2018-03-28T06:02:28.983Z,7.66
2018-03-28T06:02:54.523Z,7.75
2018-03-28T06:03:19.931Z,7.7
2018-03-28T06:03:45.461Z,7.73
2018-03-28T06:04:10.946Z,7.75
2018-03-28T06:04:36.472Z,7.67
2018-03-28T06:05:01.972Z,7.75
2018-03-28T06:05:27.453Z,7.73
2018-03-28T06:05:52.961Z,7.69
2018-03-28T06:06:18.472Z,7.7
2018-03-28T06:06:43.973Z,7.7
2018-03-28T06:07:09.499Z,7.75
2018-03-28T06:07:35.009Z,7.72
2018-03-28T06:08:00.444Z,7.69
2018-03-28T06:08:25.934Z,7.72
2018-03-28T06:08:51.439Z,7.7
2018-03-28T06:09:16.935Z,7.76
2018-03-28T06:09:42.416Z,7.75
2018-03-28T06:10:07.932Z,7.76
2018-03-28T06:10:33.451Z,7.77
2018-03-28T06:10:58.920Z,7.7
2018-03-28T06:11:24.540Z,7.69
2018-03-28T06:11:50.056Z,7.75
2018-03-28T06:12:15.606Z,7.76
2018-03-28T06:12:41.088Z,7.72
2018-03-28T06:13:06.631Z,7.76
2018-03-28T06:13:32.122Z,7.63
2018-03-28T06:13:57.632Z,7.75
2018-03-28T06:14:23.241Z,7.73
2018-03-28T06:14:48.788Z,7.75
2018-03-28T06:15:14.290Z,7.63
2018-03-28T06:15:39.810Z,7.75
2018-03-28T06:16:05.300Z,7.75
2018-03-28T06:16:30.816Z,7.72
2018-03-28T06:16:56.309Z,7.72
2018-03-28T06:17:21.861Z,7.66
2018-03-28T06:17:47.303Z,7.66
2018-03-28T06:18:12.788Z,7.77
2018-03-28T06:18:38.401Z,7.76
2018-03-28T06:19:03.929Z,7.75
2018-03-28T06:19:29.533Z,7.77
2018-03-28T06:19:55.020Z,7.67
2018-03-28T06:20:20.483Z,7.73
2018-03-28T06:20:45.967Z,7.73
2018-03-28T06:21:11.539Z,7.79
2018-03-28T06:21:37.134Z,7.63
2018-03-28T06:22:02.823Z,7.69
2018-03-28T06:22:28.345Z,7.83
2018-03-28T06:22:54.081Z,7.76
2018-03-28T06:23:19.663Z,7.87
2018-03-28T06:23:45.157Z,7.67
2018-03-28T06:24:10.928Z,7.69
2018-03-28T06:24:36.403Z,7.83
2018-03-28T06:25:02.023Z,7.67
2018-03-28T06:25:27.656Z,7.79
2018-03-28T06:25:53.282Z,7.83
2018-03-28T06:26:18.902Z,7.83
2018-03-28T06:26:44.405Z,7.83
2018-03-28T06:27:10.032Z,7.77
2018-03-28T06:27:35.624Z,7.85
2018-03-28T06:28:01.245Z,7.8
2018-03-28T06:28:26.878Z,7.8
2018-03-28T06:28:52.549Z,7.8
2018-03-28T06:29:18.291Z,7.8
2018-03-28T06:29:43.824Z,7.85
2018-03-28T06:30:09.572Z,7.7
2018-03-28T06:30:35.131Z,7.8
2018-03-28T06:31:00.773Z,7.8
2018-03-28T06:31:26.395Z,7.75
2018-03-28T06:31:51.940Z,7.8
2018-03-28T06:32:17.476Z,7.8
2018-03-28T06:32:43.168Z,7.77
2018-03-28T06:33:08.666Z,7.85
2018-03-28T06:33:34.307Z,7.79
2018-03-28T06:33:59.986Z,7.82
2018-03-28T06:34:25.490Z,7.8
2018-03-28T06:34:51.175Z,7.77
2018-03-28T06:35:16.661Z,7.77
2018-03-28T06:35:42.310Z,7.76
2018-03-28T06:36:08.018Z,7.8
2018-03-28T06:37:11.854Z,7.85
2018-03-28T06:37:37.484Z,7.77
2018-03-28T06:38:03.140Z,7.77
2018-03-28T06:38:28.638Z,7.8
2018-03-28T06:38:54.258Z,7.79
2018-03-28T06:39:19.773Z,7.79
2018-03-28T06:39:45.507Z,7.77
2018-03-28T06:40:11.262Z,7.91
2018-03-28T06:40:36.847Z,7.82
2018-03-28T06:41:02.561Z,7.79
2018-03-28T06:41:28.091Z,7.85
2018-03-28T06:41:53.750Z,7.8
2018-03-28T06:42:19.471Z,7.79
2018-03-28T06:42:45.229Z,7.79
2018-03-28T06:43:10.784Z,7.79
2018-03-28T06:43:36.320Z,7.93
2018-03-28T06:44:01.816Z,7.93
2018-03-28T06:44:27.300Z,7.93
2018-03-28T06:44:52.857Z,7.85
2018-03-28T06:45:18.360Z,7.93
2018-03-28T06:45:43.897Z,7.97
2018-03-28T06:46:09.459Z,7.9
2018-03-28T06:46:35.006Z,7.93
2018-03-28T06:47:00.545Z,7.93
2018-03-28T06:47:26.170Z,7.9
2018-03-28T06:47:51.640Z,7.98
2018-03-28T06:48:17.194Z,7.9
2018-03-28T06:48:42.752Z,7.97
2018-03-28T06:49:08.293Z,7.87
2018-03-28T06:49:33.802Z,7.97
2018-03-28T06:49:59.360Z,7.93
2018-03-28T06:50:24.865Z,7.94
2018-03-28T06:50:50.352Z,8.01
2018-03-28T06:51:15.889Z,7.91
2018-03-28T06:51:41.406Z,7.97
2018-03-28T06:52:06.939Z,7.9
2018-03-28T06:52:32.448Z,8
2018-03-28T06:52:58.060Z,8
2018-03-28T06:53:23.476Z,7.97
2018-03-28T06:53:49.009Z,7.97
2018-03-28T06:54:14.502Z,8
2018-03-28T06:54:39.966Z,7.9
2018-03-28T06:55:05.501Z,7.98
2018-03-28T06:55:31.002Z,7.94
2018-03-28T06:55:56.545Z,7.97
2018-03-28T06:56:22.069Z,7.91
2018-03-28T06:56:47.623Z,8
2018-03-28T06:57:13.253Z,7.88
2018-03-28T06:57:38.761Z,7.94
2018-03-28T06:58:04.291Z,7.91
2018-03-28T06:58:29.917Z,7.98
2018-03-28T06:58:55.463Z,7.93
2018-03-28T06:59:21.006Z,7.9
2018-03-28T06:59:46.701Z,7.93
2018-03-28T07:00:12.201Z,7.9
2018-03-28T07:00:37.729Z,7.98
2018-03-28T07:01:03.355Z,7.9
2018-03-28T07:01:28.864Z,7.97
2018-03-28T07:01:54.356Z,7.93
2018-03-28T07:02:19.885Z,8.06
2018-03-28T07:02:45.355Z,7.94
2018-03-28T07:03:10.864Z,7.94
2018-03-28T07:03:36.360Z,8.03
2018-03-28T07:04:01.902Z,7.97
2018-03-28T07:04:27.452Z,7.98
2018-03-28T07:04:53.030Z,7.97
2018-03-28T07:05:18.554Z,7.97
2018-03-28T07:05:44.341Z,8
2018-03-28T07:06:09.971Z,7.97
2018-03-28T07:06:35.568Z,8.06
2018-03-28T07:07:01.152Z,8.06
2018-03-28T07:07:26.767Z,8.12
2018-03-28T07:07:52.303Z,8.09
2018-03-28T07:08:18.039Z,8.06
2018-03-28T07:08:43.586Z,8.05
2018-03-28T07:09:09.106Z,8.05
2018-03-28T07:09:34.722Z,8.1
2018-03-28T07:10:00.332Z,8.09
2018-03-28T07:10:26.018Z,8.06
2018-03-28T07:10:51.542Z,8.09
2018-03-28T07:11:17.157Z,8.1
2018-03-28T07:11:42.744Z,8.18
2018-03-28T07:12:08.298Z,8.1
2018-03-28T07:12:33.942Z,8.08
2018-03-28T07:12:59.563Z,8.16
2018-03-28T07:13:25.065Z,8.15
2018-03-28T07:13:50.732Z,8.13
2018-03-28T07:14:16.380Z,8.24
2018-03-28T07:14:42.010Z,8.2
2018-03-28T07:15:07.621Z,8.3
2018-03-28T07:15:33.390Z,8.3
2018-03-28T07:15:59.128Z,8.27
2018-03-28T07:16:24.836Z,8.24
2018-03-28T07:16:50.328Z,8.31
2018-03-28T07:17:16.084Z,8.36
2018-03-28T07:17:41.556Z,8.33
2018-03-28T07:18:40.119Z,8.3
2018-03-28T07:19:05.706Z,8.38
2018-03-28T07:19:31.265Z,8.33
2018-03-28T07:19:56.814Z,8.48
2018-03-28T07:20:22.481Z,8.37
2018-03-28T07:20:48.168Z,8.42
2018-03-28T07:21:13.698Z,8.48
2018-03-28T07:21:39.293Z,8.48
2018-03-28T07:22:04.879Z,8.48
2018-03-28T07:22:30.525Z,8.53
2018-03-28T07:22:56.280Z,8.56
2018-03-28T07:23:21.801Z,8.48
2018-03-28T07:23:47.553Z,8.48
2018-03-28T07:24:13.176Z,8.52
2018-03-28T07:24:38.770Z,8.45
2018-03-28T07:25:04.367Z,8.52
2018-03-28T07:25:29.860Z,8.58
2018-03-28T07:25:55.693Z,8.58
2018-03-28T07:26:21.251Z,8.51
2018-03-28T07:27:09.582Z,8.53
2018-03-28T07:27:35.205Z,8.6
2018-03-28T07:28:00.904Z,8.56
2018-03-28T07:28:26.511Z,8.55
2018-03-28T07:28:52.198Z,8.6
2018-03-28T07:29:17.773Z,8.58
2018-03-28T07:29:43.306Z,8.58
2018-03-28T07:30:08.901Z,8.51
2018-03-28T07:30:34.457Z,8.52
2018-03-28T07:31:28.855Z,8.49
2018-03-28T07:31:54.454Z,8.45
2018-03-28T07:32:19.940Z,8.6
2018-03-28T07:32:45.605Z,8.48
2018-03-28T07:33:11.440Z,8.49
2018-03-28T07:33:36.987Z,8.45
2018-03-28T07:34:02.626Z,8.46
2018-03-28T07:34:28.224Z,8.45
2018-03-28T07:34:53.857Z,8.49
2018-03-28T07:35:19.387Z,8.55
2018-03-28T07:35:44.943Z,8.56
2018-03-28T07:36:10.519Z,8.45
2018-03-28T07:36:36.253Z,8.52
2018-03-28T07:37:01.812Z,8.52
2018-03-28T07:37:27.412Z,8.45
2018-03-28T07:37:52.977Z,8.58
2018-03-28T07:38:18.613Z,8.49
2018-03-28T07:38:44.422Z,8.46
2018-03-28T07:39:10.053Z,8.48
2018-03-28T07:39:35.712Z,8.53
2018-03-28T07:40:01.249Z,8.52
2018-03-28T07:40:26.812Z,8.48
2018-03-28T07:40:52.366Z,8.52
2018-03-28T07:41:17.999Z,8.6
2018-03-28T07:41:43.619Z,8.45
2018-03-28T07:42:09.177Z,8.55
2018-03-28T07:42:34.767Z,8.52
2018-03-28T07:43:00.361Z,8.48
2018-03-28T07:43:26.196Z,8.53
2018-03-28T07:43:52.037Z,8.58
2018-03-28T07:44:17.790Z,8.55
2018-03-28T07:44:43.626Z,8.53
2018-03-28T07:45:09.277Z,8.53
2018-03-28T07:45:34.863Z,8.48
2018-03-28T07:46:00.441Z,8.56
2018-03-28T07:46:25.943Z,8.58
2018-03-28T07:46:51.566Z,8.45
2018-03-28T07:47:17.250Z,8.61
2018-03-28T07:47:42.836Z,8.48
2018-03-28T07:48:08.544Z,8.55
2018-03-28T07:48:34.173Z,8.53
2018-03-28T07:48:59.757Z,8.55
2018-03-28T07:49:25.488Z,8.53
2018-03-28T07:49:51.220Z,8.56
2018-03-28T07:50:16.758Z,8.55
2018-03-28T07:50:42.416Z,8.56
2018-03-28T07:51:08.189Z,8.52
2018-03-28T07:51:33.686Z,8.56
2018-03-28T07:51:59.263Z,8.53
2018-03-28T07:52:24.860Z,8.64
2018-03-28T07:52:50.444Z,8.53
2018-03-28T07:53:16.147Z,8.56
2018-03-28T07:53:41.883Z,8.6
2018-03-28T07:54:07.512Z,8.66
2018-03-28T07:54:33.132Z,8.61
2018-03-28T07:54:58.975Z,8.58
2018-03-28T07:55:24.526Z,8.64
2018-03-28T07:55:50.058Z,8.64
2018-03-28T07:56:15.577Z,8.6
2018-03-28T07:56:41.101Z,8.64
2018-03-28T07:57:06.635Z,8.58
2018-03-28T07:57:32.250Z,8.67
2018-03-28T07:57:58.973Z,8.53
2018-03-28T07:58:26.615Z,8.6
2018-03-28T07:58:53.143Z,8.58
2018-03-28T07:59:20.530Z,8.53
2018-03-28T07:59:46.229Z,8.58
2018-03-28T08:00:12.870Z,8.64
2018-03-28T08:00:38.378Z,8.56
2018-03-28T08:01:47.479Z,8.56
2018-03-28T08:02:13.188Z,8.55
2018-03-28T08:02:38.788Z,8.52
2018-03-28T08:03:04.936Z,8.6
2018-03-28T08:03:30.755Z,8.53
2018-03-28T08:03:56.442Z,8.55
2018-03-28T08:04:22.123Z,8.61
2018-03-28T08:04:47.776Z,8.55
2018-03-28T08:05:13.423Z,8.55
2018-03-28T08:05:39.044Z,8.6
2018-03-28T08:06:04.667Z,8.58
2018-03-28T08:06:30.190Z,8.52
2018-03-28T08:06:55.962Z,8.58
2018-03-28T08:07:21.537Z,8.6
2018-03-28T08:07:47.053Z,8.58
2018-03-28T08:08:12.709Z,8.63
2018-03-28T08:08:38.292Z,8.64
2018-03-28T08:09:03.863Z,8.64
2018-03-28T08:09:29.582Z,8.64
2018-03-28T08:09:55.172Z,8.67
2018-03-28T08:10:20.987Z,8.7
2018-03-28T08:10:46.518Z,8.69
2018-03-28T08:11:12.145Z,8.7
2018-03-28T08:11:37.831Z,8.73
2018-03-28T08:12:03.582Z,8.73
2018-03-28T08:12:29.233Z,8.79
2018-03-28T08:12:54.919Z,8.78
2018-03-28T08:13:20.630Z,8.78
2018-03-28T08:13:46.313Z,8.78
2018-03-28T08:14:12.465Z,8.74
2018-03-28T08:14:38.199Z,8.76
2018-03-28T08:15:03.835Z,8.82
2018-03-28T08:15:29.618Z,8.89
2018-03-28T08:15:55.215Z,8.81
2018-03-28T08:16:20.889Z,8.85
2018-03-28T08:16:46.435Z,8.91
2018-03-28T08:17:12.082Z,8.92
2018-03-28T08:17:37.800Z,8.87
2018-03-28T08:18:03.497Z,8.91
2018-03-28T08:18:29.083Z,8.95
2018-03-28T08:18:54.694Z,9.02
2018-03-28T08:19:20.449Z,9.04
2018-03-28T08:19:46.054Z,9.08
2018-03-28T08:20:11.840Z,8.92
2018-03-28T08:20:37.399Z,9.06
2018-03-28T08:21:03.048Z,8.95
2018-03-28T08:21:28.632Z,9.11
2018-03-28T08:21:54.259Z,9.13
2018-03-28T08:22:19.866Z,9.13
2018-03-28T08:22:45.428Z,9.13
2018-03-28T08:23:11.251Z,9.23
2018-03-28T08:23:36.914Z,9.23
2018-03-28T08:24:02.526Z,9.23
2018-03-28T08:24:28.129Z,9.36
2018-03-28T08:24:53.785Z,9.37
2018-03-28T08:25:19.467Z,9.43
2018-03-28T08:25:45.115Z,9.48
2018-03-28T08:26:10.666Z,9.46
2018-03-28T08:26:36.322Z,9.51
2018-03-28T08:27:02.017Z,9.4
2018-03-28T08:27:27.629Z,9.5
2018-03-28T08:27:53.372Z,9.51
2018-03-28T08:28:19.290Z,9.61
2018-03-28T08:28:45.089Z,9.59
2018-03-28T08:29:10.728Z,9.58
2018-03-28T08:29:36.271Z,9.58
2018-03-28T08:30:01.889Z,9.61
2018-03-28T08:30:27.421Z,9.66
2018-03-28T08:30:53.314Z,9.68
2018-03-28T08:31:19.069Z,9.72
2018-03-28T08:31:44.642Z,9.77
2018-03-28T08:32:38.662Z,9.77
2018-03-28T08:33:04.361Z,9.79
2018-03-28T08:33:57.449Z,9.8
2018-03-28T08:34:22.981Z,9.8
2018-03-28T08:34:48.567Z,9.8
2018-03-28T08:35:14.210Z,9.87
2018-03-28T08:35:39.898Z,9.82
2018-03-28T08:36:05.602Z,9.92
2018-03-28T08:36:31.379Z,9.92
2018-03-28T08:36:57.006Z,9.95
2018-03-28T08:37:22.612Z,9.98
2018-03-28T08:37:48.201Z,9.94
2018-03-28T08:38:13.868Z,10.05
2018-03-28T08:38:39.508Z,9.97
2018-03-28T08:39:05.258Z,10.04
2018-03-28T08:39:30.891Z,10.01
2018-03-28T08:39:56.662Z,10.07
2018-03-28T08:40:22.458Z,10.05
2018-03-28T08:40:48.207Z,10.07
2018-03-28T08:41:13.856Z,10.05
2018-03-28T08:41:39.541Z,10.12
2018-03-28T08:42:05.101Z,10.09
2018-03-28T08:42:30.771Z,10.15
2018-03-28T08:42:56.426Z,10.17
2018-03-28T08:43:22.018Z,10.25
2018-03-28T08:43:47.713Z,10.22
2018-03-28T08:44:13.257Z,10.2
2018-03-28T08:44:38.796Z,10.26
2018-03-28T08:45:04.508Z,10.22
2018-03-28T08:45:30.095Z,10.3
2018-03-28T08:45:55.645Z,10.26
2018-03-28T08:46:21.260Z,10.19
2018-03-28T08:46:47.049Z,10.33
2018-03-28T08:47:12.717Z,10.33
2018-03-28T08:47:38.408Z,10.23
2018-03-28T08:48:04.037Z,10.22
2018-03-28T08:48:29.836Z,10.26
2018-03-28T08:48:55.425Z,10.31
2018-03-28T08:49:20.991Z,10.31
2018-03-28T08:49:46.586Z,10.3
2018-03-28T08:50:12.123Z,10.23
2018-03-28T08:50:37.798Z,10.35
2018-03-28T08:51:03.487Z,10.35
2018-03-28T08:51:29.121Z,10.33
2018-03-28T08:52:38.784Z,10.44
2018-03-28T08:53:04.392Z,10.46
2018-03-28T08:53:29.974Z,10.44
2018-03-28T08:53:55.572Z,10.54
2018-03-28T08:54:21.159Z,10.59
2018-03-28T08:54:46.797Z,10.49
2018-03-28T08:55:12.382Z,10.49
2018-03-28T08:55:38.024Z,10.53
2018-03-28T08:56:03.799Z,10.6
2018-03-28T08:56:29.419Z,10.64
2018-03-28T08:56:55.022Z,10.59
2018-03-28T08:57:20.555Z,10.63
2018-03-28T08:57:46.120Z,10.64
2018-03-28T08:58:11.815Z,10.71
2018-03-28T08:58:37.437Z,10.78
2018-03-28T08:59:03.064Z,10.76
2018-03-28T08:59:28.820Z,10.76
2018-03-28T08:59:54.665Z,10.75
2018-03-28T09:00:20.491Z,10.76
2018-03-28T09:00:46.079Z,10.78
2018-03-28T09:01:11.940Z,10.72
2018-03-28T09:01:37.532Z,10.75
2018-03-28T09:02:03.266Z,10.76
2018-03-28T09:02:28.808Z,10.76
2018-03-28T09:02:54.401Z,10.76
2018-03-28T09:03:20.201Z,10.87
2018-03-28T09:03:45.775Z,10.74
2018-03-28T09:04:11.353Z,10.78
2018-03-28T09:04:37.015Z,10.86
2018-03-28T09:05:02.709Z,10.84
2018-03-28T09:05:28.403Z,10.81
2018-03-28T09:05:53.995Z,10.84
2018-03-28T09:06:19.676Z,10.87
2018-03-28T09:06:45.332Z,10.82
2018-03-28T09:07:10.951Z,10.9
2018-03-28T09:07:36.549Z,10.86
2018-03-28T09:08:02.037Z,10.81
2018-03-28T09:08:27.673Z,10.78
2018-03-28T09:08:53.435Z,10.81
2018-03-28T09:09:18.981Z,10.89
2018-03-28T09:09:44.745Z,10.93
2018-03-28T09:10:48.008Z,10.96
2018-03-28T09:11:13.668Z,10.94
2018-03-28T09:11:39.333Z,11
2018-03-28T09:12:04.923Z,10.97
2018-03-28T09:12:30.619Z,10.92
2018-03-28T09:12:56.302Z,10.92
2018-03-28T09:13:21.946Z,10.93
2018-03-28T09:13:47.578Z,10.92
2018-03-28T09:14:13.214Z,10.84
2018-03-28T09:14:38.791Z,10.89
2018-03-28T09:15:04.356Z,10.81
2018-03-28T09:15:30.138Z,10.89
2018-03-28T09:15:55.775Z,10.89
2018-03-28T09:16:21.400Z,10.89
2018-03-28T09:16:46.994Z,10.87
2018-03-28T09:17:12.627Z,10.93
2018-03-28T09:17:38.245Z,10.9
2018-03-28T09:18:03.733Z,10.93
2018-03-28T09:18:29.952Z,10.96
2018-03-28T09:18:56.476Z,10.89
2018-03-28T09:19:22.270Z,10.87
2018-03-28T09:19:47.719Z,10.94
2018-03-28T09:20:13.392Z,10.96
2018-03-28T09:20:39.253Z,10.92
2018-03-28T09:21:05.191Z,10.93
2018-03-28T09:21:30.806Z,10.89
2018-03-28T09:21:56.385Z,10.92
2018-03-28T09:22:22.096Z,10.86
2018-03-28T09:22:47.852Z,10.87
2018-03-28T09:23:13.472Z,10.87
2018-03-28T09:23:39.246Z,10.92
2018-03-28T09:24:04.776Z,10.9
2018-03-28T09:24:30.324Z,10.93
2018-03-28T09:24:56.064Z,10.93
2018-03-28T09:25:21.716Z,10.86
2018-03-28T09:25:47.509Z,10.89
2018-03-28T09:26:13.093Z,10.9
2018-03-28T09:26:38.639Z,10.9
2018-03-28T09:27:04.381Z,10.87
2018-03-28T09:27:30.039Z,10.9
2018-03-28T09:27:55.655Z,10.87
2018-03-28T09:28:21.335Z,10.89
2018-03-28T09:28:47.057Z,10.86
2018-03-28T09:29:12.689Z,10.93
2018-03-28T09:29:38.297Z,10.93
2018-03-28T09:30:03.852Z,10.96
2018-03-28T09:30:29.543Z,10.94
2018-03-28T09:30:55.077Z,10.92
2018-03-28T09:31:20.647Z,10.99
2018-03-28T09:31:46.368Z,10.93
2018-03-28T09:32:12.184Z,10.93
2018-03-28T09:32:37.651Z,10.89
2018-03-28T09:33:03.231Z,10.97
2018-03-28T09:33:28.922Z,10.94
2018-03-28T09:33:54.480Z,10.9
2018-03-28T09:34:20.185Z,10.93
2018-03-28T09:34:45.808Z,10.92
2018-03-28T09:35:11.337Z,10.93
2018-03-28T09:35:37.020Z,10.94
2018-03-28T09:36:02.634Z,10.96
2018-03-28T09:36:28.254Z,10.89
2018-03-28T09:36:53.937Z,10.97
2018-03-28T09:37:19.860Z,10.9
2018-03-28T09:37:45.433Z,10.96
2018-03-28T09:38:11.174Z,10.93
2018-03-28T09:38:36.976Z,10.96
2018-03-28T09:39:02.596Z,10.92
2018-03-28T09:39:28.332Z,10.9
2018-03-28T09:39:54.058Z,10.92
2018-03-28T09:40:19.718Z,10.99
2018-03-28T09:40:45.765Z,10.89
2018-03-28T09:41:11.604Z,10.89
2018-03-28T09:41:37.257Z,10.92
2018-03-28T09:42:03.080Z,10.99
2018-03-28T09:42:28.987Z,10.94
2018-03-28T09:42:54.534Z,10.96
2018-03-28T09:43:20.134Z,10.94
2018-03-28T09:43:45.746Z,11
2018-03-28T09:44:11.224Z,10.96
2018-03-28T09:44:36.813Z,10.86
2018-03-28T09:45:02.519Z,10.97
2018-03-28T09:45:28.112Z,10.9
2018-03-28T09:45:53.746Z,10.93
2018-03-28T09:46:19.326Z,10.92
2018-03-28T09:46:44.953Z,10.92
2018-03-28T09:47:10.521Z,10.89
2018-03-28T09:47:36.249Z,10.89
2018-03-28T09:48:01.815Z,10.94
2018-03-28T09:48:27.486Z,10.86
2018-03-28T09:48:53.190Z,10.92
2018-03-28T09:49:18.881Z,10.9
2018-03-28T09:49:44.519Z,10.92
2018-03-28T09:50:10.300Z,10.86
2018-03-28T09:50:35.945Z,10.9
2018-03-28T09:51:01.760Z,10.9